Time;durP1;ratioP1;P1;durP2;ratioP2;P2;SDS_P1;SDS_P2;PMS_P1;PMS_P2;Temp;Humidity;BMP_temperature;BMP_pressure;BME280_temperature;BME280_humidity;BME280_pressure;Samples;Min_cycle;Max_cycle;Signal;HPM_P1;HPM_P2
2023/04/29 00:01:05;;;;;;;;;;;11.30;44.14;;;;;;2680055;76;20337;-93
2023/04/29 00:04:43;;;;;;;;;;;11.28;44.15;;;;;;2679185;76;20420;-93
2023/04/29 00:08:34;;;;;;;;;;;11.25;43.93;;;;;;2680590;76;20302;-93
2023/04/29 00:12:05;;;;;;;;;;;11.20;43.34;;;;;;2678903;76;20446;-94
2023/04/29 00:16:01;;;;;;;;;;;11.17;43.13;;;;;;2677197;76;20339;-93
2023/04/29 00:19:30;;;;;;;;;;;11.15;43.22;;;;;;2678318;76;20462;-93
2023/04/29 00:23:01;;;;;;;;;;;11.10;43.77;;;;;;2681918;76;20340;-95
2023/04/29 00:26:29;;;;;;;;;;;11.10;44.00;;;;;;2685252;76;20243;-94
2023/04/29 00:30:02;;;;;;;;;;;11.05;43.91;;;;;;2684573;76;20379;-94
2023/04/29 00:33:54;;;;;;;;;;;11.07;43.77;;;;;;2679002;76;20498;-93
2023/04/29 00:37:31;;;;;;;;;;;11.03;44.07;;;;;;2684761;76;20334;-94
2023/04/29 00:41:03;;;;;;;;;;;11.01;44.80;;;;;;2684068;76;20431;-94
2023/04/29 00:44:36;;;;;;;;;;;11.01;44.87;;;;;;2683689;76;20368;-94
2023/04/29 00:48:14;;;;;;;;;;;11.01;45.31;;;;;;2684859;76;20404;-95
2023/04/29 00:51:52;;;;;;;;;;;11.01;45.18;;;;;;2676535;76;20473;-93
2023/04/29 00:55:21;;;;;;;;;;;11.02;45.05;;;;;;2674680;76;20847;-93
2023/04/29 00:58:54;;;;;;;;;;;11.03;45.10;;;;;;2674209;76;20455;-93
2023/04/29 01:02:28;;;;;;;;;;;11.01;45.23;;;;;;2674456;76;20668;-94
2023/04/29 01:06:00;;;;;;;;;;;11.02;45.20;;;;;;2673917;76;20489;-93
2023/04/29 01:09:28;;;;;;;;;;;11.02;45.79;;;;;;2673890;76;20474;-93
2023/04/29 01:13:00;;;;;;;;;;;11.03;45.77;;;;;;2674873;76;20318;-93
2023/04/29 01:16:28;;;;;;;;;;;11.02;45.31;;;;;;2673040;76;20468;-94
2023/04/29 01:19:56;;;;;;;;;;;11.03;45.52;;;;;;2674206;76;20479;-94
2023/04/29 01:23:27;;;;;;;;;;;11.03;45.94;;;;;;2674582;76;20380;-93
2023/04/29 01:26:57;;;;;;;;;;;11.07;46.10;;;;;;2675197;76;20597;-94
2023/04/29 01:33:58;;;;;;;;;;;11.05;47.26;;;;;;2684830;76;20304;-95
2023/04/29 01:37:36;;;;;;;;;;;11.10;47.99;;;;;;2683997;76;20222;-96
2023/04/29 01:41:04;;;;;;;;;;;11.16;47.52;;;;;;2674647;76;20382;-94
2023/04/29 01:44:34;;;;;;;;;;;11.23;47.14;;;;;;2675142;76;20385;-95
2023/04/29 01:48:03;;;;;;;;;;;11.20;47.95;;;;;;2674124;76;20383;-94
2023/04/29 01:51:32;;;;;;;;;;;11.22;47.29;;;;;;2673396;76;20426;-96
2023/04/29 01:55:01;;;;;;;;;;;11.27;47.45;;;;;;2673077;76;20472;-96
2023/04/29 01:58:29;;;;;;;;;;;11.37;48.44;;;;;;2672858;76;20403;-95
2023/04/29 02:01:57;;;;;;;;;;;11.37;47.50;;;;;;2672036;76;20537;-96
2023/04/29 02:05:25;;;;;;;;;;;11.34;46.92;;;;;;2673891;76;20480;-96
2023/04/29 02:08:53;;;;;;;;;;;11.30;47.41;;;;;;2673002;76;20406;-96
2023/04/29 02:12:22;;;;;;;;;;;11.24;48.56;;;;;;2671836;76;20391;-95
2023/04/29 02:15:50;;;;;;;;;;;11.30;47.65;;;;;;2672314;76;20695;-96
2023/04/29 02:19:18;;;;;;;;;;;11.31;47.65;;;;;;2672044;76;20395;-96
2023/04/29 02:22:46;;;;;;;;;;;11.29;47.80;;;;;;2673684;76;20376;-95
2023/04/29 02:26:14;;;;;;;;;;;11.29;47.27;;;;;;2673947;76;20386;-95
2023/04/29 02:29:42;;;;;;;;;;;11.28;47.00;;;;;;2673714;76;20440;-95
2023/04/29 02:33:10;;;;;;;;;;;11.28;47.07;;;;;;2672936;76;20422;-95
2023/04/29 02:36:38;;;;;;;;;;;11.26;47.25;;;;;;2672736;76;20548;-95
2023/04/29 02:40:06;;;;;;;;;;;11.25;47.91;;;;;;2672660;76;20565;-96
2023/04/29 02:43:35;;;;;;;;;;;11.29;47.97;;;;;;2672978;76;20408;-96
2023/04/29 02:47:03;;;;;;;;;;;11.22;49.76;;;;;;2673438;76;20616;-96
2023/04/29 02:50:31;;;;;;;;;;;11.30;49.27;;;;;;2672287;76;20387;-96
2023/04/29 02:54:00;;;;;;;;;;;11.32;48.89;;;;;;2672937;76;20473;-96
2023/04/29 02:57:33;;;;;;;;;;;11.31;48.24;;;;;;2673637;76;20536;-96
2023/04/29 03:00:58;;;;;;;;;;;11.24;49.53;;;;;;2674728;76;20715;-96
2023/04/29 03:04:27;;;;;;;;;;;11.31;48.97;;;;;;2679268;76;20422;-96
2023/04/29 03:07:55;;;;;;;;;;;11.32;48.96;;;;;;2678028;76;20561;-95
2023/04/29 03:11:24;;;;;;;;;;;11.31;48.70;;;;;;2674444;76;20630;-95
2023/04/29 03:14:52;;;;;;;;;;;11.29;49.47;;;;;;2676462;76;20414;-95
2023/04/29 03:18:20;;;;;;;;;;;11.29;49.40;;;;;;2674832;76;20509;-95
2023/04/29 03:21:49;;;;;;;;;;;11.32;48.81;;;;;;2674360;76;20400;-95
2023/04/29 03:25:17;;;;;;;;;;;11.30;48.66;;;;;;2674578;76;20694;-95
2023/04/29 03:28:46;;;;;;;;;;;11.23;48.43;;;;;;2673138;76;20392;-95
2023/04/29 03:32:14;;;;;;;;;;;11.17;48.74;;;;;;2671979;76;20409;-95
2023/04/29 03:35:42;;;;;;;;;;;11.27;48.05;;;;;;2675256;76;20400;-95
2023/04/29 03:39:11;;;;;;;;;;;11.26;47.33;;;;;;2675195;76;20391;-94
2023/04/29 03:42:39;;;;;;;;;;;11.24;47.25;;;;;;2672721;76;20582;-96
2023/04/29 03:46:07;;;;;;;;;;;11.24;46.92;;;;;;2675265;76;20560;-95
2023/04/29 03:49:35;;;;;;;;;;;11.28;46.31;;;;;;2673835;76;20429;-95
2023/04/29 03:53:03;;;;;;;;;;;11.29;46.14;;;;;;2672459;76;20449;-96
2023/04/29 03:56:31;;;;;;;;;;;11.30;45.69;;;;;;2673196;76;20468;-96
2023/04/29 04:00:00;;;;;;;;;;;11.29;45.94;;;;;;2673740;76;20481;-96
2023/04/29 04:03:28;;;;;;;;;;;11.30;45.61;;;;;;2672910;76;20399;-95
2023/04/29 04:06:59;;;;;;;;;;;11.33;45.22;;;;;;2674778;76;20384;-96
2023/04/29 04:10:27;;;;;;;;;;;11.37;44.78;;;;;;2672798;76;20535;-96
2023/04/29 04:13:55;;;;;;;;;;;11.39;45.05;;;;;;2673978;76;20416;-96
2023/04/29 04:17:23;;;;;;;;;;;11.43;44.36;;;;;;2673943;76;20399;-96
2023/04/29 04:20:51;;;;;;;;;;;11.54;43.57;;;;;;2672777;76;20543;-96
2023/04/29 04:24:19;;;;;;;;;;;11.64;43.19;;;;;;2673377;76;20633;-96
2023/04/29 04:27:47;;;;;;;;;;;11.71;41.63;;;;;;2673876;76;20573;-96
2023/04/29 04:31:16;;;;;;;;;;;11.77;40.51;;;;;;2673231;76;20643;-96
2023/04/29 04:34:44;;;;;;;;;;;11.84;39.93;;;;;;2672229;76;20527;-95
2023/04/29 04:38:12;;;;;;;;;;;11.89;39.48;;;;;;2673139;76;20417;-95
2023/04/29 04:41:40;;;;;;;;;;;11.98;40.36;;;;;;2672106;76;20449;-96
2023/04/29 04:45:11;;;;;;;;;;;12.12;40.75;;;;;;2675252;76;20405;-95
2023/04/29 04:48:39;;;;;;;;;;;12.23;41.04;;;;;;2675772;76;20417;-96
2023/04/29 04:52:10;;;;;;;;;;;12.43;40.82;;;;;;2677043;76;20404;-95
2023/04/29 04:55:38;;;;;;;;;;;12.53;40.98;;;;;;2674619;76;20726;-96
2023/04/29 04:59:11;;;;;;;;;;;12.57;41.87;;;;;;2673614;76;20391;-96
2023/04/29 05:02:43;;;;;;;;;;;12.63;42.47;;;;;;2675161;76;20397;-96
2023/04/29 05:06:15;;;;;;;;;;;12.72;42.82;;;;;;2672426;76;20582;-96
2023/04/29 05:09:47;;;;;;;;;;;12.84;43.00;;;;;;2674929;76;20529;-96
2023/04/29 05:13:19;;;;;;;;;;;12.94;43.33;;;;;;2671504;76;20483;-96
2023/04/29 05:16:47;;;;;;;;;;;13.00;43.39;;;;;;2674511;76;20406;-96
2023/04/29 05:20:19;;;;;;;;;;;13.00;44.75;;;;;;2674344;76;20411;-96
2023/04/29 05:23:51;;;;;;;;;;;13.07;44.45;;;;;;2675643;76;20427;-96
2023/04/29 05:27:21;;;;;;;;;;;12.97;45.96;;;;;;2675761;76;20394;-96
2023/04/29 05:42:06;;;;;;;;;;;13.06;49.31;;;;;;2668262;76;20714;-96
2023/04/29 05:49:21;;;;;;;;;;;13.86;49.92;;;;;;2681860;76;20265;-96
2023/04/29 05:52:53;;;;;;;;;;;14.17;49.25;;;;;;2687975;76;20255;-96
2023/04/29 05:56:21;;;;;;;;;;;14.14;47.92;;;;;;2687810;76;20420;-96
2023/04/29 05:59:54;;;;;;;;;;;13.93;49.92;;;;;;2687015;76;20241;-96
2023/04/29 06:03:24;;;;;;;;;;;14.10;50.63;;;;;;2687069;76;20272;-96
2023/04/29 06:06:52;;;;;;;;;;;13.89;49.80;;;;;;2687509;76;20249;-96
2023/04/29 06:10:36;;;;;;;;;;;13.94;50.34;;;;;;2686908;76;20294;-95
2023/04/29 06:14:04;;;;;;;;;;;14.05;49.88;;;;;;2687606;76;20216;-95
2023/04/29 06:17:33;;;;;;;;;;;14.17;50.92;;;;;;2687080;76;20226;-96
2023/04/29 06:21:01;;;;;;;;;;;14.37;49.85;;;;;;2687970;76;20221;-96
2023/04/29 06:24:34;;;;;;;;;;;14.41;49.34;;;;;;2687803;76;20253;-96
2023/04/29 06:28:03;;;;;;;;;;;14.77;49.59;;;;;;2687035;76;20262;-96
2023/04/29 06:31:31;;;;;;;;;;;14.93;48.98;;;;;;2687139;76;20257;-96
2023/04/29 06:35:00;;;;;;;;;;;14.57;48.52;;;;;;2687496;76;20267;-96
2023/04/29 06:38:38;;;;;;;;;;;;;;;;;;;;;
2023/04/29 06:42:01;;;;;;;;;;;14.49;50.02;;;;;;2687528;76;20258;-96
2023/04/29 06:45:58;;;;;;;;;;;14.54;49.62;;;;;;2687763;76;20256;-96
2023/04/29 06:49:44;;;;;;;;;;;;;;;;;;;;;
2023/04/29 06:57:03;;;;;;;;;;;15.88;47.36;;;;;;2683888;76;20271;-96
2023/04/29 07:00:39;;;;;;;;;;;16.04;42.73;;;;;;2686769;76;20289;-96
2023/04/29 07:04:18;;;;;;;;;;;16.35;41.92;;;;;;2687750;76;20249;-96
2023/04/29 07:07:41;;;;;;;;;;;16.65;40.13;;;;;;2686380;76;20298;-96
2023/04/29 07:11:15;;;;;;;;;;;16.18;38.92;;;;;;2687402;76;20259;-96
2023/04/29 07:15:05;;;;;;;;;;;;;;;;;;;;;
2023/04/29 07:18:42;;;;;;;;;;;16.92;40.82;;;;;;2687381;76;20268;-96
2023/04/29 07:22:11;;;;;;;;;;;16.46;38.78;;;;;;2688034;76;20261;-96
2023/04/29 07:25:41;;;;;;;;;;;16.27;39.97;;;;;;2687747;76;20226;-96
2023/04/29 07:29:09;;;;;;;;;;;16.51;40.56;;;;;;2687443;76;20248;-95
2023/04/29 07:32:43;;;;;;;;;;;16.71;38.67;;;;;;2687824;76;20245;-95
2023/04/29 07:36:12;;;;;;;;;;;16.63;38.66;;;;;;2687684;76;20233;-95
2023/04/29 07:39:41;;;;;;;;;;;16.45;37.37;;;;;;2687225;76;20261;-96
2023/04/29 07:43:09;;;;;;;;;;;16.71;37.63;;;;;;2687187;76;20327;-96
2023/04/29 07:46:56;;;;;;;;;;;17.18;38.14;;;;;;2688334;76;20259;-96
2023/04/29 08:09:43;;;;;;;;;;;17.54;34.74;;;;;;2684621;76;20355;-95
2023/04/29 08:25:54;;;;;;;;;;;17.96;31.30;;;;;;2686599;76;20225;-96
2023/04/29 08:34:20;;;;;;;;;;;18.11;25.78;;;;;;2687978;76;20270;-96
2023/04/29 09:42:17;;;;;;;;;;;19.97;16.30;;;;;;2685399;76;20242;-96
2023/04/29 09:45:45;;;;;;;;;;;18.93;18.11;;;;;;2686731;76;20290;-95
2023/04/29 09:53:09;;;;;;;;;;;;;;;;;;;;;
2023/04/29 09:56:37;;;;;;;;;;;17.45;20.21;;;;;;2686607;76;20272;-96
2023/04/29 10:00:14;;;;;;;;;;;16.73;20.50;;;;;;2685655;76;20276;-95
2023/04/29 10:03:39;;;;;;;;;;;16.73;21.57;;;;;;2685470;76;20282;-95
2023/04/29 10:07:10;;;;;;;;;;;16.70;22.21;;;;;;2685278;76;20344;-96
2023/04/29 10:10:45;;;;;;;;;;;16.74;22.54;;;;;;2685452;76;20504;-96
2023/04/29 10:14:13;;;;;;;;;;;16.93;22.88;;;;;;2685319;76;20345;-96
2023/04/29 10:17:44;;;;;;;;;;;17.22;21.59;;;;;;2685694;76;20264;-95
2023/04/29 10:21:12;;;;;;;;;;;18.29;21.08;;;;;;2685084;76;20304;-96
2023/04/29 10:24:41;;;;;;;;;;;18.69;18.15;;;;;;2684872;76;20315;-95
2023/04/29 10:28:11;;;;;;;;;;;18.87;16.08;;;;;;2683140;76;20280;-95
2023/04/29 10:31:40;;;;;;;;;;;19.37;13.59;;;;;;2682760;76;20314;-95
2023/04/29 10:35:08;;;;;;;;;;;19.23;12.04;;;;;;2681105;76;20302;-95
2023/04/29 10:38:39;;;;;;;;;;;20.29;12.84;;;;;;2679609;76;20335;-94
2023/04/29 10:42:06;;;;;;;;;;;20.27;12.10;;;;;;2678262;76;20846;-94
2023/04/29 10:45:45;;;;;;;;;;;19.35;11.12;;;;;;2681573;76;20266;-95
2023/04/29 10:49:20;;;;;;;;;;;;;;;;;;;;;
2023/04/29 11:00:32;;;;;;;;;;;19.61;7.00;;;;;;2680384;76;20330;-94
2023/04/29 11:04:03;;;;;;;;;;;20.00;6.73;;;;;;2679467;76;20346;-94
2023/04/29 11:07:31;;;;;;;;;;;19.38;3.41;;;;;;2680644;76;20304;-94
2023/04/29 11:11:00;;;;;;;;;;;19.74;5.18;;;;;;2675217;76;20363;-94
2023/04/29 11:19:04;;;;;;;;;;;18.65;5.38;;;;;;2680360;76;20349;-93
2023/04/29 11:22:45;;;;;;;;;;;;;;;;;;;;;
2023/04/29 11:26:22;;;;;;;;;;;19.28;5.60;;;;;;2683102;76;20366;-95
2023/04/29 11:29:57;;;;;;;;;;;19.14;3.59;;;;;;2679907;76;20321;-94
2023/04/29 11:33:26;;;;;;;;;;;20.34;4.68;;;;;;2677974;76;20355;-94
2023/04/29 11:36:54;;;;;;;;;;;20.32;-0.29;;;;;;2678295;76;20371;-93
2023/04/29 11:40:22;;;;;;;;;;;20.45;-2.44;;;;;;2674929;76;20814;-93
2023/04/29 11:43:50;;;;;;;;;;;20.10;-2.90;;;;;;2675986;76;20295;-92
2023/04/29 11:47:20;;;;;;;;;;;19.82;-2.92;;;;;;2677013;76;20374;-91
2023/04/29 11:50:48;;;;;;;;;;;19.85;-3.32;;;;;;2674262;76;20326;-90
2023/04/29 11:54:16;;;;;;;;;;;20.05;-2.80;;;;;;2675099;76;20373;-90
2023/04/29 11:57:49;;;;;;;;;;;20.05;-3.77;;;;;;2681613;76;20316;-93
2023/04/29 12:01:32;;;;;;;;;;;19.79;-3.26;;;;;;2675788;76;20376;-92
2023/04/29 12:05:25;;;;;;;;;;;18.98;-2.99;;;;;;2674752;76;20364;-90
2023/04/29 12:09:00;;;;;;;;;;;18.64;-0.66;;;;;;2673429;76;20320;-89
2023/04/29 12:12:30;;;;;;;;;;;18.80;0.01;;;;;;2674189;76;20356;-90
2023/04/29 12:15:58;;;;;;;;;;;18.65;0.45;;;;;;2672711;76;20385;-90
2023/04/29 12:19:26;;;;;;;;;;;18.73;1.09;;;;;;2673521;76;20303;-90
2023/04/29 12:22:54;;;;;;;;;;;18.56;-0.43;;;;;;2674062;76;20341;-89
2023/04/29 12:26:25;;;;;;;;;;;18.69;0.10;;;;;;2673392;76;20721;-90
2023/04/29 12:29:55;;;;;;;;;;;18.58;0.78;;;;;;2673739;76;20314;-89
2023/04/29 12:33:24;;;;;;;;;;;18.53;0.06;;;;;;2674470;76;20342;-89
2023/04/29 12:36:52;;;;;;;;;;;18.34;-0.43;;;;;;2674342;76;20344;-89
2023/04/29 12:40:20;;;;;;;;;;;18.43;0.90;;;;;;2673527;76;20802;-90
2023/04/29 12:43:48;;;;;;;;;;;18.27;-1.55;;;;;;2673199;76;20425;-90
2023/04/29 12:47:16;;;;;;;;;;;18.30;-1.85;;;;;;2675085;76;20341;-92
2023/04/29 12:50:44;;;;;;;;;;;18.59;-0.74;;;;;;2675531;76;20569;-92
2023/04/29 12:54:15;;;;;;;;;;;18.71;-3.09;;;;;;2676270;76;20314;-92
2023/04/29 12:57:43;;;;;;;;;;;19.11;-4.21;;;;;;2676081;76;20698;-92
2023/04/29 13:01:12;;;;;;;;;;;19.67;-4.37;;;;;;2672556;76;20310;-90
2023/04/29 13:04:40;;;;;;;;;;;19.98;-4.83;;;;;;2673042;76;20784;-90
2023/04/29 13:08:08;;;;;;;;;;;19.66;-4.76;;;;;;2674445;76;20857;-90
2023/04/29 13:11:38;;;;;;;;;;;19.79;-4.70;;;;;;2672557;76;20340;-91
2023/04/29 13:15:06;;;;;;;;;;;20.76;-5.30;;;;;;2673417;76;20354;-90
2023/04/29 13:18:49;;;;;;;;;;;20.56;-5.79;;;;;;2673940;76;20316;-90
2023/04/29 13:22:18;;;;;;;;;;;20.95;-5.19;;;;;;2673978;76;20353;-91
2023/04/29 13:25:47;;;;;;;;;;;20.89;-4.47;;;;;;2674323;76;20332;-90
2023/04/29 13:29:15;;;;;;;;;;;20.55;-4.09;;;;;;2674040;76;20473;-91
2023/04/29 13:32:43;;;;;;;;;;;20.19;-4.52;;;;;;2674162;76;20743;-91
2023/04/29 13:36:11;;;;;;;;;;;19.97;-4.38;;;;;;2674197;76;20326;-90
2023/04/29 13:39:39;;;;;;;;;;;20.06;-4.52;;;;;;2674133;76;20356;-91
2023/04/29 13:43:07;;;;;;;;;;;20.22;-4.41;;;;;;2674461;76;20305;-93
2023/04/29 13:46:59;;;;;;;;;;;19.95;-1.91;;;;;;2674831;76;20299;-93
2023/04/29 13:50:29;;;;;;;;;;;19.83;0.80;;;;;;2675068;76;20358;-94
2023/04/29 13:53:44;;;;;;;;;;;19.50;-1.45;;;;;;2675035;76;20327;-92
2023/04/29 13:57:13;;;;;;;;;;;19.86;-3.60;;;;;;2673149;76;20741;-92
2023/04/29 14:00:41;;;;;;;;;;;20.26;-1.41;;;;;;2672786;76;20337;-92
2023/04/29 14:04:09;;;;;;;;;;;20.18;-1.31;;;;;;2674031;76;20357;-93
2023/04/29 14:07:38;;;;;;;;;;;20.53;-2.41;;;;;;2676791;76;20304;-93
2023/04/29 14:11:06;;;;;;;;;;;20.45;-2.89;;;;;;2674716;76;20355;-92
2023/04/29 14:14:34;;;;;;;;;;;19.92;-3.08;;;;;;2674649;76;20362;-93
2023/04/29 14:18:02;;;;;;;;;;;19.69;-3.86;;;;;;2675257;76;20315;-93
2023/04/29 14:21:32;;;;;;;;;;;19.96;-2.99;;;;;;2675054;76;20921;-94
2023/04/29 14:25:00;;;;;;;;;;;20.19;-3.16;;;;;;2676484;76;20330;-93
2023/04/29 14:28:28;;;;;;;;;;;21.37;-4.76;;;;;;2676247;76;20314;-93
2023/04/29 14:31:56;;;;;;;;;;;25.95;118.56;;;;;;2675413;76;22278;-93
2023/04/29 14:35:24;;;;;;;;;;;29.02;110.58;;;;;;2675468;76;20292;-94
2023/04/29 14:38:52;;;;;;;;;;;30.51;104.60;;;;;;2677139;76;20314;-93
2023/04/29 14:42:21;;;;;;;;;;;32.02;101.12;;;;;;2677153;76;20325;-93
2023/04/29 14:45:52;;;;;;;;;;;33.27;100.64;;;;;;2684902;76;20294;-92
2023/04/29 14:49:20;;;;;;;;;;;34.26;99.51;;;;;;2681405;76;20354;-93
2023/04/29 14:52:48;;;;;;;;;;;34.46;93.69;;;;;;2675986;76;20304;-94
2023/04/29 14:56:16;;;;;;;;;;;33.76;90.64;;;;;;2676057;76;20355;-94
2023/04/29 14:59:44;;;;;;;;;;;33.61;91.46;;;;;;2676199;76;20333;-93
2023/04/29 15:03:13;;;;;;;;;;;31.69;91.49;;;;;;2675237;76;20363;-94
2023/04/29 15:06:41;;;;;;;;;;;32.12;88.49;;;;;;2674349;76;20917;-93
2023/04/29 15:10:09;;;;;;;;;;;32.17;88.17;;;;;;2674784;76;20331;-93
2023/04/29 15:13:38;;;;;;;;;;;32.57;86.64;;;;;;2676020;76;20301;-94
2023/04/29 15:17:06;;;;;;;;;;;32.48;85.76;;;;;;2674728;76;20339;-94
2023/04/29 15:20:34;;;;;;;;;;;33.80;85.67;;;;;;2675287;76;20362;-94
2023/04/29 15:24:03;;;;;;;;;;;33.89;85.06;;;;;;2675753;76;20334;-94
2023/04/29 15:27:31;;;;;;;;;;;30.25;88.21;;;;;;2675064;76;20386;-93
2023/04/29 15:31:02;;;;;;;;;;;29.37;88.76;;;;;;2676091;76;20306;-94
2023/04/29 15:34:30;;;;;;;;;;;27.60;89.84;;;;;;2675197;76;20355;-93
2023/04/29 15:37:58;;;;;;;;;;;27.27;95.26;;;;;;2675571;76;20327;-93
2023/04/29 15:41:29;;;;;;;;;;;28.94;93.05;;;;;;2675952;76;20364;-93
2023/04/29 15:44:57;;;;;;;;;;;26.69;93.85;;;;;;2675090;76;20340;-93
2023/04/29 15:48:26;;;;;;;;;;;28.17;90.13;;;;;;2675417;76;20323;-93
2023/04/29 15:51:54;;;;;;;;;;;27.98;94.33;;;;;;2675826;76;20338;-93
2023/04/29 15:55:25;;;;;;;;;;;25.98;96.49;;;;;;2675376;76;20335;-93
2023/04/29 15:58:53;;;;;;;;;;;29.91;90.79;;;;;;2675844;76;20327;-93
2023/04/29 16:02:21;;;;;;;;;;;31.11;90.09;;;;;;2675303;76;20412;-93
2023/04/29 16:05:52;;;;;;;;;;;30.85;87.80;;;;;;2673143;76;20778;-92
2023/04/29 16:09:20;;;;;;;;;;;30.53;88.93;;;;;;2674742;76;20341;-93
2023/04/29 16:12:48;;;;;;;;;;;29.36;89.50;;;;;;2673713;76;20307;-93
2023/04/29 16:16:16;;;;;;;;;;;28.76;90.12;;;;;;2674373;76;20343;-93
2023/04/29 16:19:44;;;;;;;;;;;28.21;91.43;;;;;;2674414;76;20302;-93
2023/04/29 16:23:12;;;;;;;;;;;27.24;92.47;;;;;;2674176;76;20351;-94
2023/04/29 16:26:40;;;;;;;;;;;27.64;92.82;;;;;;2674374;76;20373;-93
2023/04/29 16:30:09;;;;;;;;;;;27.09;94.36;;;;;;2674378;76;20315;-93
2023/04/29 16:33:37;;;;;;;;;;;25.80;95.04;;;;;;2674988;76;20578;-92
2023/04/29 16:37:11;;;;;;;;;;;26.05;95.48;;;;;;2674731;76;20327;-92
2023/04/29 16:40:35;;;;;;;;;;;27.78;96.12;;;;;;2673509;76;20319;-93
2023/04/29 16:44:03;;;;;;;;;;;29.33;91.51;;;;;;2674165;76;20288;-93
2023/04/29 16:47:34;;;;;;;;;;;30.49;90.64;;;;;;2674815;76;20310;-93
2023/04/29 16:51:03;;;;;;;;;;;29.51;91.92;;;;;;2675113;76;20374;-92
2023/04/29 16:54:31;;;;;;;;;;;28.08;93.03;;;;;;2674648;76;20347;-93
2023/04/29 16:58:00;;;;;;;;;;;28.00;93.85;;;;;;2674871;76;20351;-93
2023/04/29 17:01:28;;;;;;;;;;;28.25;92.40;;;;;;2674936;76;20757;-93
2023/04/29 17:04:56;;;;;;;;;;;28.13;91.54;;;;;;2675181;76;20343;-92
2023/04/29 17:08:24;;;;;;;;;;;23.41;95.73;;;;;;2675246;76;20354;-93
2023/04/29 17:11:52;;;;;;;;;;;21.24;102.86;;;;;;2673796;76;20308;-92
2023/04/29 17:15:20;;;;;;;;;;;20.47;106.71;;;;;;2675174;76;20792;-92
2023/04/29 17:18:49;;;;;;;;;;;21.47;108.72;;;;;;2675240;76;20371;-93
2023/04/29 17:22:19;;;;;;;;;;;24.28;101.93;;;;;;2674863;76;20349;-93
2023/04/29 17:25:47;;;;;;;;;;;26.03;100.04;;;;;;2676196;76;20325;-92
2023/04/29 17:29:15;;;;;;;;;;;24.41;98.61;;;;;;2676799;76;20322;-92
2023/04/29 17:32:45;;;;;;;;;;;22.08;104.08;;;;;;2675092;76;20324;-92
2023/04/29 17:36:13;;;;;;;;;;;20.11;109.01;;;;;;2675175;76;20801;-93
2023/04/29 17:39:41;;;;;;;;;;;18.88;114.36;;;;;;2675415;76;20363;-93
2023/04/29 17:43:09;;;;;;;;;;;18.17;116.80;;;;;;2674707;76;20339;-92
2023/04/29 17:46:41;;;;;;;;;;;17.50;118.81;;;;;;2675550;76;20774;-91
2023/04/29 17:50:09;;;;;;;;;;;17.17;-5.63;;;;;;2675727;76;20768;-92
2023/04/29 17:53:37;;;;;;;;;;;16.67;-4.66;;;;;;2674637;76;20343;-92
2023/04/29 17:57:06;;;;;;;;;;;16.30;-3.56;;;;;;2675343;76;20650;-92
2023/04/29 18:00:37;;;;;;;;;;;16.00;-2.01;;;;;;2675706;76;20770;-93
2023/04/29 18:04:06;;;;;;;;;;;15.75;-1.36;;;;;;2675407;76;20334;-92
2023/04/29 18:07:39;;;;;;;;;;;15.70;-0.93;;;;;;2675025;76;20338;-92
2023/04/29 18:11:04;;;;;;;;;;;15.60;-0.30;;;;;;2675377;76;20365;-92
2023/04/29 18:14:32;;;;;;;;;;;15.46;0.47;;;;;;2675524;76;20340;-93
2023/04/29 18:18:01;;;;;;;;;;;15.26;1.84;;;;;;2676031;76;20305;-92
2023/04/29 18:21:29;;;;;;;;;;;14.99;3.44;;;;;;2675442;76;20823;-93
2023/04/29 18:24:57;;;;;;;;;;;14.79;4.03;;;;;;2675542;76;20297;-92
2023/04/29 18:28:25;;;;;;;;;;;14.60;5.21;;;;;;2676034;76;20305;-92
2023/04/29 18:31:53;;;;;;;;;;;14.45;5.76;;;;;;2675449;76;20334;-92
2023/04/29 18:35:21;;;;;;;;;;;14.32;5.95;;;;;;2675135;76;20384;-92
2023/04/29 18:38:53;;;;;;;;;;;14.27;6.22;;;;;;2675635;76;20313;-92
2023/04/29 18:42:21;;;;;;;;;;;14.23;6.24;;;;;;2675210;76;20357;-93
2023/04/29 18:45:49;;;;;;;;;;;14.24;6.59;;;;;;2675565;76;20737;-92
2023/04/29 18:49:17;;;;;;;;;;;14.27;7.01;;;;;;2675394;76;20355;-92
2023/04/29 18:52:46;;;;;;;;;;;14.36;6.94;;;;;;2675363;76;20338;-92
2023/04/29 18:56:14;;;;;;;;;;;14.44;7.09;;;;;;2675402;76;20329;-92
2023/04/29 18:59:42;;;;;;;;;;;14.50;7.31;;;;;;2676367;76;20364;-92
2023/04/29 19:03:10;;;;;;;;;;;14.40;7.46;;;;;;2674978;76;20329;-92
2023/04/29 19:06:38;;;;;;;;;;;14.49;7.73;;;;;;2675510;76;20338;-91
2023/04/29 19:10:06;;;;;;;;;;;14.49;7.60;;;;;;2676115;76;20350;-92
2023/04/29 19:13:35;;;;;;;;;;;14.45;7.59;;;;;;2676351;76;20331;-92
2023/04/29 19:17:03;;;;;;;;;;;14.39;7.84;;;;;;2675693;76;20366;-92
2023/04/29 19:20:31;;;;;;;;;;;14.32;7.76;;;;;;2676119;76;20308;-91
2023/04/29 19:23:59;;;;;;;;;;;14.26;8.18;;;;;;2675899;76;20299;-92
2023/04/29 19:27:27;;;;;;;;;;;14.22;8.15;;;;;;2676361;76;20353;-91
2023/04/29 19:30:55;;;;;;;;;;;14.13;8.23;;;;;;2676242;76;20306;-92
2023/04/29 19:34:24;;;;;;;;;;;14.10;8.12;;;;;;2676166;76;20290;-92
2023/04/29 19:37:54;;;;;;;;;;;14.05;8.28;;;;;;2676740;76;20326;-91
2023/04/29 19:41:22;;;;;;;;;;;14.01;8.41;;;;;;2676437;76;20344;-92
2023/04/29 19:44:50;;;;;;;;;;;14.04;8.60;;;;;;2676364;76;20315;-92
2023/04/29 19:48:18;;;;;;;;;;;14.07;8.71;;;;;;2676203;76;20334;-92
2023/04/29 19:51:46;;;;;;;;;;;14.15;8.78;;;;;;2674908;76;20330;-93
2023/04/29 19:55:14;;;;;;;;;;;14.23;8.88;;;;;;2677470;76;20323;-90
2023/04/29 19:58:42;;;;;;;;;;;14.24;9.08;;;;;;2677302;76;20349;-93
2023/04/29 20:02:11;;;;;;;;;;;14.21;9.12;;;;;;2675435;76;20965;-92
2023/04/29 20:05:40;;;;;;;;;;;14.19;9.11;;;;;;2676435;76;20348;-92
2023/04/29 20:09:10;;;;;;;;;;;14.22;9.46;;;;;;2677089;76;20340;-92
2023/04/29 20:12:39;;;;;;;;;;;14.13;9.50;;;;;;2675472;76;20771;-92
2023/04/29 20:16:07;;;;;;;;;;;14.11;9.70;;;;;;2676329;76;20339;-92
2023/04/29 20:19:35;;;;;;;;;;;14.01;9.42;;;;;;2676077;76;20322;-92
2023/04/29 20:23:05;;;;;;;;;;;13.96;9.58;;;;;;2675339;76;20373;-92
2023/04/29 20:26:33;;;;;;;;;;;14.00;9.62;;;;;;2675864;76;20335;-92
2023/04/29 20:30:09;;;;;;;;;;;14.03;9.42;;;;;;2676589;76;20319;-92
2023/04/29 20:33:31;;;;;;;;;;;13.93;9.40;;;;;;2675639;76;20765;-92
2023/04/29 20:37:00;;;;;;;;;;;14.00;9.52;;;;;;2676841;76;20305;-92
2023/04/29 20:40:28;;;;;;;;;;;14.01;9.73;;;;;;2676845;76;20366;-92
2023/04/29 20:43:57;;;;;;;;;;;13.97;9.72;;;;;;2676481;76;20304;-92
2023/04/29 20:47:26;;;;;;;;;;;13.94;9.69;;;;;;2676219;76;20322;-92
2023/04/29 20:50:54;;;;;;;;;;;13.90;9.82;;;;;;2675996;76;20308;-92
2023/04/29 20:54:22;;;;;;;;;;;13.77;9.63;;;;;;2676677;76;20343;-91
2023/04/29 20:57:50;;;;;;;;;;;13.77;9.75;;;;;;2676848;76;20363;-92
2023/04/29 21:01:18;;;;;;;;;;;13.75;9.95;;;;;;2676504;76;20303;-92
2023/04/29 21:04:47;;;;;;;;;;;13.64;9.87;;;;;;2676697;76;20359;-92
2023/04/29 21:08:15;;;;;;;;;;;13.58;10.11;;;;;;2676111;76;20346;-92
2023/04/29 21:11:43;;;;;;;;;;;13.47;10.04;;;;;;2675986;76;20373;-92
2023/04/29 21:15:16;;;;;;;;;;;13.38;10.33;;;;;;2676380;76;20326;-92
2023/04/29 21:18:41;;;;;;;;;;;13.30;10.55;;;;;;2676418;76;20322;-92
2023/04/29 21:22:10;;;;;;;;;;;13.21;10.55;;;;;;2675842;76;23061;-92
2023/04/29 21:25:40;;;;;;;;;;;13.12;10.63;;;;;;2676001;76;20335;-92
2023/04/29 21:29:08;;;;;;;;;;;12.97;11.23;;;;;;2676198;76;20320;-91
2023/04/29 21:32:39;;;;;;;;;;;12.94;11.18;;;;;;2676585;76;20361;-92
2023/04/29 21:36:07;;;;;;;;;;;12.87;11.55;;;;;;2675984;76;20912;-92
2023/04/29 21:39:35;;;;;;;;;;;12.69;11.50;;;;;;2676023;76;20341;-92
2023/04/29 21:43:04;;;;;;;;;;;12.58;11.52;;;;;;2675237;76;20354;-91
2023/04/29 21:46:35;;;;;;;;;;;12.47;11.28;;;;;;2675422;76;20307;-91
2023/04/29 21:50:03;;;;;;;;;;;12.34;11.16;;;;;;2675664;76;20338;-92
2023/04/29 21:53:31;;;;;;;;;;;12.27;11.17;;;;;;2674552;76;20301;-91
2023/04/29 21:57:03;;;;;;;;;;;12.14;11.06;;;;;;2674501;76;20322;-92
2023/04/29 22:00:39;;;;;;;;;;;12.01;11.03;;;;;;2674384;76;20336;-90
2023/04/29 22:04:10;;;;;;;;;;;11.89;11.17;;;;;;2673389;76;20320;-91
2023/04/29 22:07:38;;;;;;;;;;;11.78;11.16;;;;;;2674299;76;20331;-92
2023/04/29 22:11:06;;;;;;;;;;;11.70;11.14;;;;;;2673745;76;20359;-91
2023/04/29 22:14:39;;;;;;;;;;;11.66;11.31;;;;;;2674675;76;20317;-91
2023/04/29 22:18:04;;;;;;;;;;;11.66;11.55;;;;;;2673645;76;20359;-91
2023/04/29 22:21:39;;;;;;;;;;;11.62;12.35;;;;;;2673123;76;20352;-91
2023/04/29 22:25:03;;;;;;;;;;;11.57;12.15;;;;;;2673578;76;20321;-90
2023/04/29 22:28:31;;;;;;;;;;;11.52;12.04;;;;;;2673913;76;20373;-90
2023/04/29 22:31:59;;;;;;;;;;;11.41;12.01;;;;;;2673330;76;20318;-91
2023/04/29 22:35:27;;;;;;;;;;;11.43;12.39;;;;;;2673474;76;20382;-91
2023/04/29 22:38:55;;;;;;;;;;;11.39;12.65;;;;;;2673097;76;20366;-91
2023/04/29 22:42:24;;;;;;;;;;;11.40;13.55;;;;;;2673039;76;20310;-90
2023/04/29 22:45:52;;;;;;;;;;;11.49;13.77;;;;;;2673252;76;20362;-89
2023/04/29 22:49:20;;;;;;;;;;;11.60;13.94;;;;;;2673830;76;20312;-89